Flight Track Log - Related Links

Times and Time Zones

All times are in EDT time to prevent confusion due to time zone crossing. See the NKS562 flight status page for this flight to view local times or setup timezone preferences in your user account.

Time Position Orientation Groundspeed Altitude Reporting Facility
EDT Latitude Longitude Course Direction KTS MPH feet Rate Location/Type
Thu 11:20:47 AM 36.0760 -115.1080 91° East 156 180 3,300  Level FlightAware ADS-B
Thu 11:21:17 AM 36.0760 -115.0780 90° East 192 221 4,300 1,855 Climbing FlightAware ADS-B
Thu 11:21:42 AM 36.0760 -115.0490 90° East 235 270 5,000 2,073 Climbing FlightAware ADS-B
Thu 11:22:12 AM 36.0760 -115.0070 90° East 258 297 6,200 1,500 Climbing FlightAware ADS-B
Thu 11:22:42 AM 36.0750 -114.9600 91° East 268 308 6,500 764 Climbing FlightAware ADS-B
Thu 11:23:07 AM 36.0790 -114.9210 83° East 266 306 6,900 2,836 Climbing FlightAware ADS-B
Thu 11:23:37 AM 36.0860 -114.8760 79° East 268 308 9,100 4,133 Climbing FlightAware ADS-B
Thu 11:23:52 AM 36.0900 -114.8560 76° East 270 311 10,000 2,618 Climbing FlightAware ADS-B
Thu 11:24:32 AM 36.1020 -114.7900 77° East 319 367 11,500 2,475 Climbing FlightAware ADS-B
Thu 11:25:12 AM 36.1140 -114.7150 79° East 343 395 13,300 2,894 Climbing FlightAware ADS-B
Thu 11:25:57 AM 36.1290 -114.6290 78° East 357 411 15,600 2,965 Climbing FlightAware ADS-B
Thu 11:26:37 AM 36.1440 -114.5420 78° East 371 427 17,500 2,541 Climbing FlightAware ADS-B
Thu 11:27:22 AM 36.1600 -114.4480 78° East 393 452 19,200 2,400 Climbing FlightAware ADS-B
Thu 11:28:02 AM 36.1750 -114.3580 78° East 405 466 20,900 2,475 Climbing FlightAware ADS-B
Thu 11:28:42 AM 36.1900 -114.2660 79° East 412 474 22,500 1,482 Climbing FlightAware ADS-B
Thu 11:29:27 AM 36.2060 -114.1580 80° East 419 482 23,000 353 Climbing FlightAware ADS-B
Thu 11:30:07 AM 36.2160 -114.0630 83° East 420 483 23,000  Level FlightAware ADS-B
Thu 11:30:52 AM 36.2280 -113.9580 82° East 419 482 23,000 847 Level FlightAware ADS-B
Thu 11:31:32 AM 36.2390 -113.8650 82° East 424 488 24,200 1,875 Climbing FlightAware ADS-B
Thu 11:32:12 AM 36.2510 -113.7650 82° East 435 501 25,500 1,835 Climbing FlightAware ADS-B
Thu 11:32:57 AM 36.2640 -113.6510 82° East 450 518 26,800 1,906 Climbing FlightAware ADS-B
Thu 11:33:37 AM 36.2760 -113.5470 82° East 451 519 28,200 1,835 Climbing FlightAware ADS-B
Thu 11:34:22 AM 36.2880 -113.4390 82° East 458 527 29,400 1,482 Climbing FlightAware ADS-B
Thu 11:35:02 AM 36.3010 -113.3290 82° East 471 542 30,300 1,350 Climbing FlightAware ADS-B
Thu 11:35:42 AM 36.3140 -113.2240 81° East 473 544 31,200 1,553 Climbing FlightAware ADS-B
Thu 11:36:27 AM 36.3550 -113.1110 66° East 466 536 32,500 1,765 Climbing FlightAware ADS-B
Thu 11:37:07 AM 36.3900 -113.0170 65° Northeast 465 535 33,700 1,875 Climbing FlightAware ADS-B
Thu 11:37:47 AM 36.4260 -112.9180 66° East 460 529 35,000 1,624 Climbing FlightAware ADS-B
Thu 11:38:32 AM 36.4660 -112.8100 65° Northeast 461 531 36,000 1,412 Climbing FlightAware ADS-B
Thu 11:39:12 AM 36.5020 -112.7130 65° Northeast 460 529 37,000 706 Climbing FlightAware ADS-B
Thu 11:39:57 AM 36.5420 -112.6050 65° Northeast 464 534 37,000  Level FlightAware ADS-B
Thu 11:40:37 AM 36.5780 -112.5050 66° East 460 529 37,000  Level FlightAware ADS-B
Thu 11:41:22 AM 36.6170 -112.4000 65° Northeast 460 529 37,000  Level FlightAware ADS-B
Thu 11:42:02 AM 36.6510 -112.3060 66° East 460 529 37,000  Level FlightAware ADS-B
Thu 11:42:37 AM 36.6810 -112.2240 65° Northeast 459 528 37,000  Level FlightAware ADS-B
Thu 11:43:27 AM 36.7190 -112.1220 65° Northeast 459 528 37,000  Level FlightAware ADS-B
Thu 11:44:07 AM 36.7500 -112.0400 65° Northeast 459 528 37,000  Level FlightAware ADS-B
Thu 11:44:47 AM 36.7800 -111.9590 65° Northeast 459 528 37,000  Level FlightAware ADS-B
Thu 11:45:27 AM 36.8110 -111.8770 65° Northeast 459 528 37,000  Level FlightAware ADS-B
Thu 11:46:17 AM 36.8490 -111.7750 65° Northeast 459 528 37,000  Level FlightAware ADS-B
Thu 11:46:57 AM 36.8790 -111.6930 65° Northeast 459 528 37,000  Level FlightAware ADS-B
Thu 11:47:37 AM 36.9100 -111.6110 65° Northeast 459 528 37,000  Level FlightAware ADS-B
Thu 11:48:17 AM 36.9400 -111.5290 65° Northeast 459 528 37,000  Level FlightAware ADS-B
Thu 11:48:57 AM 36.9710 -111.4470 65° Northeast 459 528 37,000  Level FlightAware ADS-B
Thu 11:49:37 AM 37.0010 -111.3650 65° Northeast 459 528 37,000  Level FlightAware ADS-B
Thu 11:50:27 AM 37.0390 -111.2630 65° Northeast 459 528 37,000  Level FlightAware ADS-B
Thu 11:51:07 AM 37.0700 -111.1810 65° Northeast 459 528 37,000  Level FlightAware ADS-B
Thu 11:51:47 AM 37.1000 -111.0990 65° Northeast 459 528 37,000  Level FlightAware ADS-B
Thu 11:52:50 AM 37.1936 -110.7700 65° Northeast 451 519 37,000  Level Denver Center
Thu 11:53:52 AM 37.2444 -110.6247 66° East 455 524 37,000  Level Denver Center
Thu 11:54:54 AM 37.2939 -110.4783 67° East 457 526 37,000  Level Denver Center
Thu 11:55:56 AM 37.3536 -110.3031 67° East 456 525 37,000  Level Denver Center
Thu 11:56:58 AM 37.4061 -110.1481 67° East 454 522 37,000  Level Denver Center
Thu 11:58:00 AM 37.4542 -110.0097 66° East 449 517 37,000  Level Denver Center
Thu 11:59:02 AM 37.4997 -109.8708 68° East 448 516 37,000  Level Denver Center
Thu 12:00:04 PM 37.5542 -109.7083 67° East 450 518 37,000  Level Denver Center
Thu 12:01:06 PM 37.6000 -109.5703 67° East 447 514 37,000 -532 Level Denver Center
Thu 12:02:08 PM 37.6533 -109.4072 68° East 449 517 35,900 -968 Descending Denver Center
Thu 12:03:10 PM 37.6992 -109.2683 67° East 447 514 35,000 -435 Descending Denver Center
Thu 12:04:12 PM 37.7514 -109.1064 68° East 447 514 35,000  Level Denver Center
Thu 12:05:14 PM 37.7958 -108.9719 67° East 437 503 35,000  Level Denver Center
Thu 12:06:16 PM 37.8619 -108.8239 60° Northeast 432 497 35,000  Level Denver Center
Thu 12:07:18 PM 37.9211 -108.7028 58° Northeast 424 488 35,000 -336 Level Denver Center
Thu 12:08:21 PM 37.9886 -108.5583 59° Northeast 426 490 34,300 -276 Descending Denver Center
Thu 12:14:32 PM 38.3620 -107.7860 59° Northeast 416 479 33,000 -190 Descending FlightAware ADS-B
Thu 12:15:12 PM 38.4010 -107.7030 59° Northeast 417 480 33,000  Level FlightAware ADS-B
Thu 12:15:52 PM 38.4400 -107.6200 59° Northeast 420 483 33,000  Level FlightAware ADS-B
Thu 12:16:27 PM 38.4740 -107.5470 59° Northeast 422 486 33,000  Level FlightAware ADS-B
Thu 12:17:17 PM 38.5210 -107.4410 60° Northeast 421 484 33,000  Level FlightAware ADS-B
Thu 12:18:02 PM 38.5610 -107.3510 60° Northeast 420 483 33,000  Level FlightAware ADS-B
Thu 12:18:42 PM 38.6020 -107.2610 60° Northeast 422 486 33,000  Level FlightAware ADS-B
Thu 12:19:27 PM 38.6480 -107.1580 60° Northeast 422 486 33,000  Level FlightAware ADS-B
Thu 12:20:07 PM 38.6850 -107.0740 61° Northeast 423 487 33,000  Level FlightAware ADS-B
Thu 12:20:47 PM 38.7220 -106.9900 61° Northeast 424 488 33,000  Level FlightAware ADS-B
Thu 12:21:32 PM 38.7610 -106.9030 60° Northeast 424 488 33,000  Level FlightAware ADS-B
Thu 12:22:12 PM 38.8080 -106.7950 61° Northeast 426 490 33,000  Level FlightAware ADS-B
Thu 12:22:28 PM 38.8266 -106.7550 59° Northeast 426 490 33,000  Level FlightAware ADS-B
Thu 12:23:00 PM 38.8583 -106.6870 59° Northeast 424 488 33,000  Level FlightAware ADS-B
Thu 12:23:37 PM 38.8920 -106.6130 60° Northeast 422 486 33,000  Level FlightAware ADS-B
Thu 12:24:11 PM 38.9287 -106.5320 60° Northeast 423 487 33,000  Level FlightAware ADS-B
Thu 12:24:49 PM 38.9660 -106.4490 60° Northeast 422 486 33,000  Level FlightAware ADS-B
Thu 12:25:37 PM 39.0060 -106.3610 60° Northeast 421 484 33,000 -97 Level FlightAware ADS-B
Thu 12:25:51 PM 39.0261 -106.3160 60° Northeast 421 484 32,900 -818 Descending FlightAware ADS-B
Thu 12:26:21 PM 39.0553 -106.2500 60° Northeast 424 488 32,400 -1,574 Descending FlightAware ADS-B
Thu 12:26:52 PM 39.0855 -106.1820 60° Northeast 421 484 31,300 -1,839 Descending FlightAware ADS-B
Thu 12:27:23 PM 39.1151 -106.1160 60° Northeast 419 482 30,500 -2,164 Descending FlightAware ADS-B
Thu 12:27:53 PM 39.1447 -106.0500 60° Northeast 419 482 29,100 -2,754 Descending FlightAware ADS-B
Thu 12:28:24 PM 39.1739 -105.9850 60° Northeast 415 478 27,700 -2,455 Descending FlightAware ADS-B
Thu 12:28:59 PM 39.2070 -105.9100 60° Northeast 403 464 26,400 -2,182 Descending FlightAware ADS-B
Thu 12:29:30 PM 39.2346 -105.8480 60° Northeast 388 447 25,300 -2,066 Descending FlightAware ADS-B
Thu 12:30:00 PM 39.2608 -105.7890 60° Northeast 376 433 24,300 -1,967 Descending FlightAware ADS-B
Thu 12:30:31 PM 39.2869 -105.7290 61° Northeast 363 418 23,300 -2,066 Descending FlightAware ADS-B
Thu 12:31:01 PM 39.3117 -105.6730 60° Northeast 356 410 22,200 -2,262 Descending FlightAware ADS-B
Thu 12:31:32 PM 39.3366 -105.6170 60° Northeast 352 405 21,000 -2,361 Descending FlightAware ADS-B
Thu 12:32:02 PM 39.3608 -105.5620 60° Northeast 348 400 19,800 -1,770 Descending FlightAware ADS-B
Thu 12:32:33 PM 39.3845 -105.5070 61° Northeast 333 383 19,200 -1,091 Descending FlightAware ADS-B
Thu 12:32:46 PM 39.3932 -105.4850 63° Northeast 330 380 19,000 -1,125 Descending FlightAware ADS-B
Thu 12:32:49 PM 39.3949 -105.4780 73° East 333 383 18,900 -1,500 Descending FlightAware ADS-B
Thu 12:32:54 PM 39.3965 -105.4680 78° East 337 388 18,800 -1,167 Descending FlightAware ADS-B
Thu 12:33:25 PM 39.3994 -105.4080 86° East 332 382 18,200 -1,475 Descending FlightAware ADS-B
Thu 12:33:55 PM 39.4016 -105.3490 87° East 327 376 17,300 -1,900 Descending FlightAware ADS-B
Thu 12:34:25 PM 39.4040 -105.2890 87° East 327 376 16,300 -1,672 Descending FlightAware ADS-B
Thu 12:34:56 PM 39.4065 -105.2310 87° East 318 366 15,600 -1,377 Descending FlightAware ADS-B
Thu 12:35:26 PM 39.4091 -105.1740 87° East 314 361 14,900 -1,324 Descending FlightAware ADS-B
Thu 12:36:04 PM 39.4123 -105.1050 87° East 306 352 14,100 -1,217 Descending FlightAware ADS-B
Thu 12:36:35 PM 39.4148 -105.0480 87° East 301 346 13,500 -1,180 Descending FlightAware ADS-B
Thu 12:37:05 PM 39.4172 -104.9940 87° East 299 344 12,900 -1,220 Descending FlightAware ADS-B
Thu 12:37:34 PM 39.4196 -104.9430 86° East 302 348 12,300 -1,220 Descending FlightAware ADS-B
Thu 12:38:04 PM 39.4244 -104.8880 84° East 297 342 11,700 -1,180 Descending FlightAware ADS-B
Thu 12:38:35 PM 39.4296 -104.8350 83° East 290 334 11,100 -1,091 Descending FlightAware ADS-B
Thu 12:38:48 PM 39.4357 -104.8150 68° East 284 327 10,900 -1,440 Descending FlightAware ADS-B
Thu 12:39:00 PM 39.4465 -104.8000 47° Northeast 281 323 10,500 -1,565 Descending FlightAware ADS-B
Thu 12:39:11 PM 39.4586 -104.7900 33° Northeast 278 320 10,300 -1,556 Descending FlightAware ADS-B
Thu 12:39:27 PM 39.4761 -104.7770 30° Northeast 278 320 9,800 -1,636 Descending FlightAware ADS-B
Thu 12:39:44 PM 39.4944 -104.7630 31° Northeast 278 320 9,400 -909 Descending FlightAware ADS-B
Thu 12:40:00 PM 39.5129 -104.7500 28° Northeast 275 316 9,300 -167 Descending FlightAware ADS-B
Thu 12:40:20 PM 39.5334 -104.7340 31° Northeast 254 292 9,300  Level FlightAware ADS-B
Thu 12:40:36 PM 39.5493 -104.7220 30° Northeast 241 277 9,300 -343 Level FlightAware ADS-B
Thu 12:40:55 PM 39.5671 -104.7090 29° Northeast 234 269 9,100 -882 Descending FlightAware ADS-B
Thu 12:41:10 PM 39.5813 -104.6980 31° Northeast 237 273 8,800 -1,161 Descending FlightAware ADS-B
Thu 12:41:26 PM 39.5958 -104.6860 33° Northeast 237 273 8,500 -706 Descending FlightAware ADS-B
Thu 12:41:44 PM 39.6125 -104.6730 31° Northeast 233 268 8,400 -480 Descending FlightAware ADS-B
Thu 12:41:51 PM 39.6196 -104.6680 28° Northeast 234 269 8,300 -353 Descending FlightAware ADS-B
Thu 12:42:01 PM 39.6298 -104.6650 13° North 233 268 8,300  Level FlightAware ADS-B
Thu 12:42:16 PM 39.6460 -104.6630 North 233 268 8,300 -214 Level FlightAware ADS-B
Thu 12:42:29 PM 39.6593 -104.6620 North 217 250 8,200 -828 Descending FlightAware ADS-B
Thu 12:42:45 PM 39.6745 -104.6620 360° North 214 246 7,900 -1,161 Descending FlightAware ADS-B
Thu 12:43:00 PM 39.6892 -104.6620 360° North 211 243 7,600 -1,200 Descending FlightAware ADS-B
Thu 12:43:15 PM 39.7037 -104.6620 360° North 200 230 7,300 -1,355 Descending FlightAware ADS-B
Thu 12:43:31 PM 39.7181 -104.6620 360° North 195 224 6,900 -1,059 Descending FlightAware ADS-B
Thu 12:43:49 PM 39.7346 -104.6620 360° North 193 222 6,700 -667 Descending FlightAware ADS-B
Thu 12:43:58 PM 39.7419 -104.6620 360° North 192 221 6,600 -923 Descending FlightAware ADS-B
Thu 12:44:15 PM 39.7569 -104.6610 North 182 209 6,300 -1,125 Descending FlightAware ADS-B
Thu 12:44:30 PM 39.7692 -104.6610 360° North 165 190 6,000 -1,304 Descending FlightAware ADS-B
Thu 12:44:38 PM 39.7752 -104.6610 360° North 158 182 5,800 -947 Descending FlightAware ADS-B
Thu 12:44:49 PM 39.7826 -104.6610 360° North 146 168 5,700 -545 Descending FlightAware ADS-B
Thu 12:45:00 PM 39.7897 -104.6610 360° North 138 159 5,600 -818 Descending FlightAware ADS-B
Thu 12:45:11 PM 39.7963 -104.6610 360° North 136 157 5,400 -1,000 Descending FlightAware ADS-B
Thu 12:45:18 PM 39.8007 -104.6610 360° North 135 155 5,300 -750 Descending FlightAware ADS-B
Thu 12:45:27 PM 39.8062 -104.6610 360° North 132 152 5,200 -375 Descending FlightAware ADS-B
Thu 12:45:34 PM 39.8107 -104.6610 360° North 134 154 5,200 -500 Level FlightAware ADS-B
Thu 12:45:39 PM 39.8141 -104.6610 360° North 137 158 5,100 -857 Descending FlightAware ADS-B
Thu 12:45:48 PM 39.8193 -104.6610 360° North 133 153 5,000 -750 Descending FlightAware ADS-B
Thu 12:46:03 PM 39.8286 -104.6610 360° North 131 151 4,800 -800 Descending FlightAware ADS-B

Login

Don't have an account? Register now (free) for customized features, flight alerts, and more!